This is the latest recevied weather packets stored in our database for station/object SQ5SUI-3. If no packets are shown the sender has not sent any weather packets the latest 10 day(s).
| Time | Temp. | Humidity | Pressure | Rain* | Wind** | Luminosity | Snow |
|---|---|---|---|---|---|---|---|
| 1777577121 | 7.78° C | 35% | 994.8 hPa | 0 mm | - | - | - |
| 1777575320 | 8.33° C | 32% | 995.1 hPa | 0 mm | - | - | - |
| 1777573522 | 8.33° C | 30% | 995.2 hPa | 0 mm | - | - | - |
| 1777571722 | 10° C | 24% | 995.6 hPa | 0 mm | - | - | - |
| 1777569921 | 10.56° C | 20% | 995.9 hPa | 0 mm | - | - | - |
| 1777568121 | 10.56° C | 17% | 996.1 hPa | 0 mm | - | - | - |
| 1777566321 | 11.11° C | 15% | 996.4 hPa | 0 mm | - | - | - |
| 1777564521 | 11.67° C | 14% | 996.2 hPa | 0 mm | - | - | - |
| 1777562722 | 12.78° C | 14% | 996.3 hPa | 0 mm | - | - | - |
| 1777560922 | 11.67° C | 14% | 995.8 hPa | 0 mm | - | - | - |
| 1777559121 | 12.78° C | 12% | 995.7 hPa | 0 mm | - | - | - |
| 1777557322 | 11.67° C | 13% | 995.2 hPa | 0 mm | - | - | - |
| 1777555522 | 13.33° C | 14% | 994.8 hPa | 0 mm | - | - | - |
| 1777553721 | 13.33° C | 15% | 994.2 hPa | 0 mm | - | - | - |
| 1777551920 | 11.67° C | 14% | 993.5 hPa | 0 mm | - | - | - |
| 1777550120 | 11.11° C | 15% | 993.3 hPa | 0 mm | - | - | - |
| 1777548320 | 10.56° C | 17% | 993 hPa | 0 mm | - | - | - |
| 1777546522 | 10.56° C | 16% | 992.7 hPa | 0 mm | - | - | - |
| 1777544722 | 10.56° C | 19% | 992.6 hPa | 0 mm | - | - | - |
| 1777542922 | 8.89° C | 19% | 992.2 hPa | 0 mm | - | - | - |
| 1777541121 | 9.44° C | 19% | 992.1 hPa | 0 mm | - | - | - |
| 1777539321 | 8.33° C | 21% | 992 hPa | 0 mm | - | - | - |
| 1777537520 | 8.33° C | 22% | 992 hPa | 0 mm | - | - | - |
| 1777535722 | 7.78° C | 20% | 992 hPa | 0 mm | - | - | - |
| 1777533922 | 7.22° C | 36% | 991.9 hPa | 0 mm | - | - | - |
* Rain latest hour (hover to see other rain measurements)
** Current wind speed in m/s (hover to see current wind gust speed)